Time;durP1;ratioP1;P1;durP2;ratioP2;P2;SDS_P1;SDS_P2;PMS_P1;PMS_P2;Temp;Humidity;BMP_temperature;BMP_pressure;BME280_temperature;BME280_humidity;BME280_pressure;Samples;Min_cycle;Max_cycle;Signal;HPM_P1;HPM_P2
2023/03/29 00:00:38;;;;;;;4.70;1.25;;;5.00;99.90;;;;;;4724826;30;20085;-90
2023/03/29 00:03:24;;;;;;;1.92;0.90;;;4.90;99.90;;;;;;4729315;30;20187;-92
2023/03/29 00:06:04;;;;;;;4.15;0.80;;;4.90;99.90;;;;;;4743217;30;20060;-91
2023/03/29 00:08:32;;;;;;;1.42;0.75;;;4.90;99.90;;;;;;4735424;30;20060;-90
2023/03/29 00:11:11;;;;;;;2.95;0.90;;;5.00;99.90;;;;;;4733203;30;20067;-91
2023/03/29 00:13:39;;;;;;;1.40;0.70;;;5.80;99.90;;;;;;4748200;30;20131;-91
2023/03/29 00:16:08;;;;;;;3.03;1.17;;;5.10;99.90;;;;;;4728593;30;20778;-90
2023/03/29 00:18:44;;;;;;;3.63;1.00;;;4.60;99.90;;;;;;4728419;30;20052;-92
2023/03/29 00:21:35;;;;;;;2.58;0.90;;;5.30;99.90;;;;;;4705953;30;20049;-91
2023/03/29 00:24:03;;;;;;;3.15;1.13;;;5.50;99.90;;;;;;4727664;30;20052;-92
2023/03/29 00:26:34;;;;;;;3.33;1.50;;;4.90;99.90;;;;;;4740201;30;20052;-90
2023/03/29 00:29:00;;;;;;;2.70;1.30;;;5.40;99.90;;;;;;4717721;30;20079;-90
2023/03/29 00:31:33;;;;;;;2.40;1.33;;;5.10;99.90;;;;;;4734874;30;20466;-91
2023/03/29 00:33:58;;;;;;;3.28;1.38;;;6.00;99.90;;;;;;4733711;30;20525;-91
2023/03/29 00:36:25;;;;;;;8.73;1.40;;;6.20;99.90;;;;;;4734608;30;20068;-89
2023/03/29 00:38:53;;;;;;;2.00;0.90;;;4.80;99.90;;;;;;4728546;30;20084;-89
2023/03/29 00:41:20;;;;;;;1.90;0.80;;;4.90;99.90;;;;;;4733343;30;20414;-90
2023/03/29 00:43:57;;;;;;;1.52;0.70;;;5.90;99.90;;;;;;4735488;30;20491;-90
2023/03/29 00:46:24;;;;;;;1.73;0.90;;;4.90;99.90;;;;;;4734322;30;20056;-89
2023/03/29 00:48:53;;;;;;;1.75;1.10;;;5.00;99.90;;;;;;4700162;30;1217738;-90
2023/03/29 00:51:23;;;;;;;1.70;0.93;;;4.90;99.90;;;;;;4743457;30;20059;-90
2023/03/29 00:53:54;;;;;;;1.42;0.65;;;5.70;99.90;;;;;;4742790;30;20051;-91
2023/03/29 00:56:26;;;;;;;2.55;0.93;;;5.10;99.90;;;;;;4751113;30;20048;-90
2023/03/29 00:59:05;;;;;;;1.42;0.82;;;3.90;99.90;;;;;;4755233;30;20066;-89
2023/03/29 01:01:46;;;;;;;1.02;0.63;;;4.90;99.90;;;;;;4747870;30;20056;-90
2023/03/29 01:04:22;;;;;;;2.47;0.90;;;4.90;99.90;;;;;;4749894;30;20051;-91
2023/03/29 01:07:04;;;;;;;2.30;1.23;;;4.90;99.90;;;;;;4742966;30;20055;-89
2023/03/29 01:09:36;;;;;;;2.38;1.13;;;5.00;99.90;;;;;;4749999;30;20056;-90
2023/03/29 01:12:16;;;;;;;2.83;0.90;;;5.60;99.90;;;;;;4743532;30;20048;-89
2023/03/29 01:14:52;;;;;;;1.95;0.80;;;4.90;99.90;;;;;;4749041;30;20056;-89
2023/03/29 01:17:20;;;;;;;;;;;4.50;99.90;;;;;;4738474;30;20052;-90
2023/03/29 01:20:01;;;;;;;3.92;1.00;;;5.40;99.90;;;;;;4749685;30;19933;-90
2023/03/29 01:22:57;;;;;;;2.65;0.95;;;5.00;99.90;;;;;;4751054;30;20055;-90
2023/03/29 01:25:46;;;;;;;2.80;1.00;;;5.00;99.90;;;;;;4744025;30;20392;-90
2023/03/29 01:28:27;;;;;;;1.52;0.52;;;4.90;99.90;;;;;;4736536;30;20109;-90
2023/03/29 01:31:05;;;;;;;1.60;0.90;;;5.70;99.90;;;;;;4749745;30;20122;-90
2023/03/29 01:33:44;;;;;;;2.22;0.88;;;4.40;99.90;;;;;;4749841;30;20376;-90
2023/03/29 01:36:23;;;;;;;1.65;0.70;;;5.00;99.90;;;;;;4749335;30;20441;-91
2023/03/29 01:39:03;;;;;;;1.13;0.50;;;5.20;99.90;;;;;;4749739;30;20058;-90
2023/03/29 01:42:07;;;;;;;1.23;0.75;;;6.20;99.90;;;;;;4737578;30;20117;-90
2023/03/29 01:45:14;;;;;;;2.00;0.77;;;4.90;99.90;;;;;;4695881;30;20053;-90
2023/03/29 01:47:53;;;;;;;6.00;1.10;;;4.90;99.90;;;;;;4660561;30;20075;-90
2023/03/29 01:50:33;;;;;;;3.72;1.30;;;5.00;99.90;;;;;;4664300;30;20065;-91
2023/03/29 01:53:06;;;;;;;2.58;1.30;;;6.10;99.90;;;;;;4651183;30;20070;-90
2023/03/29 01:55:39;;;;;;;3.15;1.10;;;5.60;99.90;;;;;;4651595;30;20062;-90
2023/03/29 01:58:08;;;;;;;1.48;0.82;;;5.00;99.90;;;;;;4652149;30;20130;-90
2023/03/29 02:00:35;;;;;;;3.53;0.90;;;4.90;99.90;;;;;;4651415;30;20066;-88
2023/03/29 02:03:09;;;;;;;2.53;1.00;;;5.10;99.90;;;;;;4651544;30;20051;-90
2023/03/29 02:05:37;;;;;;;4.07;1.35;;;6.10;99.90;;;;;;4665704;30;20069;-90
2023/03/29 02:08:06;;;;;;;3.80;1.00;;;4.50;99.90;;;;;;4651493;30;20076;-90
2023/03/29 02:10:33;;;;;;;1.88;0.95;;;5.10;99.90;;;;;;4665948;30;20134;-89
2023/03/29 02:12:59;;;;;;;2.72;0.75;;;5.60;99.90;;;;;;4654821;30;20045;-89
2023/03/29 02:15:25;;;;;;;1.10;0.77;;;5.80;99.90;;;;;;4654645;30;20108;-90
2023/03/29 02:17:53;;;;;;;2.40;0.90;;;5.00;99.90;;;;;;4651284;30;20151;-89
2023/03/29 02:20:26;;;;;;;1.67;0.90;;;5.80;99.90;;;;;;4671231;30;20091;-89
2023/03/29 02:23:22;;;;;;;2.13;0.90;;;5.10;99.90;;;;;;4700433;30;20053;-89
2023/03/29 02:25:52;;;;;;;2.28;1.17;;;5.10;99.90;;;;;;4745429;30;20062;-89
2023/03/29 02:28:20;;;;;;;2.53;1.17;;;3.80;99.90;;;;;;4753260;30;20055;-91
2023/03/29 02:31:04;;;;;;;3.40;1.33;;;5.60;99.90;;;;;;4752781;30;20060;-89
2023/03/29 02:34:09;;;;;;;2.38;1.02;;;5.00;99.90;;;;;;4751695;30;20052;-89
2023/03/29 02:36:52;;;;;;;4.28;0.90;;;5.00;99.90;;;;;;4747910;30;20056;-90
2023/03/29 02:39:20;;;;;;;2.05;1.05;;;5.20;99.90;;;;;;4753657;30;20443;-89
2023/03/29 02:41:49;;;;;;;1.88;0.85;;;5.70;99.90;;;;;;4753950;30;20056;-91
2023/03/29 02:44:21;;;;;;;3.22;1.10;;;5.10;99.90;;;;;;4751454;30;20055;-90
2023/03/29 02:46:49;;;;;;;2.63;1.05;;;6.20;99.90;;;;;;4752703;30;20067;-90
2023/03/29 02:49:15;;;;;;;2.95;1.00;;;6.10;99.90;;;;;;4743690;30;20055;-89
2023/03/29 02:51:42;;;;;;;1.42;0.95;;;5.00;99.90;;;;;;4737536;30;20052;-90
2023/03/29 02:54:14;;;;;;;1.85;1.02;;;5.80;99.90;;;;;;4737750;30;20056;-89
2023/03/29 02:56:46;;;;;;;1.65;1.10;;;5.10;99.90;;;;;;4737331;30;20055;-90
2023/03/29 02:59:13;;;;;;;2.20;1.00;;;5.10;99.90;;;;;;4743056;30;20079;-89
2023/03/29 03:01:41;;;;;;;2.53;1.10;;;5.00;99.90;;;;;;4736809;30;20538;-89
2023/03/29 03:04:11;;;;;;;2.10;1.00;;;5.60;99.90;;;;;;4736493;30;20056;-90
2023/03/29 03:06:39;;;;;;;3.45;1.38;;;4.70;99.90;;;;;;4745409;30;20066;-89
2023/03/29 03:09:06;;;;;;;2.08;1.13;;;5.30;99.90;;;;;;4727558;30;20052;-89
2023/03/29 03:11:33;;;;;;;2.30;1.27;;;5.10;99.90;;;;;;4734657;30;20135;-90
2023/03/29 03:13:58;;;;;;;3.00;0.98;;;5.40;99.90;;;;;;4753890;30;20071;-89
2023/03/29 03:16:27;;;;;;;2.63;1.10;;;4.80;99.90;;;;;;4736513;30;20138;-90
2023/03/29 03:18:54;;;;;;;1.77;0.95;;;5.60;99.90;;;;;;4730580;30;20095;-89
2023/03/29 03:21:21;;;;;;;2.17;0.95;;;5.70;99.90;;;;;;4737412;30;20048;-89
2023/03/29 03:23:47;;;;;;;3.03;1.75;;;6.10;99.90;;;;;;4737053;30;20059;-89
2023/03/29 03:26:14;;;;;;;2.20;1.10;;;6.20;99.90;;;;;;4744849;30;20051;-90
2023/03/29 03:28:40;;;;;;;2.95;1.27;;;6.20;99.90;;;;;;4737112;30;20086;-90
2023/03/29 03:31:06;;;;;;;1.20;0.75;;;5.60;99.90;;;;;;4727931;30;20055;-89
2023/03/29 03:33:32;;;;;;;3.05;1.48;;;5.10;99.90;;;;;;4717945;30;20083;-90
2023/03/29 03:36:05;;;;;;;2.47;1.05;;;5.40;99.90;;;;;;4750831;30;20135;-90
2023/03/29 03:38:34;;;;;;;2.92;1.13;;;6.10;99.90;;;;;;4737305;30;20071;-89
2023/03/29 03:41:01;;;;;;;3.55;1.30;;;6.30;99.90;;;;;;4728880;30;20490;-89
2023/03/29 03:43:27;;;;;;;5.93;1.60;;;5.50;99.90;;;;;;4736914;30;20535;-89
2023/03/29 03:45:56;;;;;;;2.20;1.33;;;5.90;99.90;;;;;;4736698;30;20056;-88
2023/03/29 03:48:23;;;;;;;5.18;1.67;;;6.00;99.90;;;;;;4734709;30;20072;-89
2023/03/29 03:50:51;;;;;;;2.95;1.50;;;5.80;99.90;;;;;;4748624;30;20083;-89
2023/03/29 03:53:17;;;;;;;3.88;1.60;;;6.30;99.90;;;;;;4754381;30;20436;-90
2023/03/29 03:55:48;;;;;;;2.08;1.10;;;6.10;99.90;;;;;;4753953;30;20040;-89
2023/03/29 03:58:14;;;;;;;2.33;1.10;;;5.30;99.90;;;;;;4770187;30;20097;-89
2023/03/29 04:00:40;;;;;;;2.38;1.00;;;6.40;99.90;;;;;;4747103;30;20063;-89
2023/03/29 04:03:06;;;;;;;3.17;1.10;;;6.30;99.90;;;;;;4739529;30;20047;-90
2023/03/29 04:05:32;;;;;;;5.10;1.55;;;5.70;99.90;;;;;;4753988;30;20217;-88
2023/03/29 04:07:59;;;;;;;2.80;1.52;;;6.40;99.90;;;;;;4754801;30;20086;-89
2023/03/29 04:10:24;;;;;;;2.17;1.30;;;6.20;99.90;;;;;;4753064;30;20090;-89
2023/03/29 04:12:50;;;;;;;2.55;1.55;;;5.90;99.90;;;;;;4769758;30;20039;-89
2023/03/29 04:15:16;;;;;;;2.88;1.20;;;6.40;99.90;;;;;;4739215;30;20528;-90
2023/03/29 04:17:42;;;;;;;5.10;1.50;;;5.20;99.90;;;;;;4769207;30;20616;-88
2023/03/29 04:20:11;;;;;;;3.28;1.25;;;5.10;99.90;;;;;;4769986;30;20044;-89
2023/03/29 04:22:37;;;;;;;3.70;1.80;;;5.10;99.90;;;;;;4753918;30;20521;-89
2023/03/29 04:25:05;;;;;;;3.55;1.35;;;6.50;99.90;;;;;;4769682;30;20044;-89
2023/03/29 04:27:31;;;;;;;2.67;1.27;;;5.20;99.90;;;;;;4769565;30;20055;-90
2023/03/29 04:29:57;;;;;;;2.50;1.35;;;6.40;99.90;;;;;;4753546;30;20079;-89
2023/03/29 04:32:23;;;;;;;3.03;1.60;;;6.10;99.90;;;;;;4753453;30;20144;-89
2023/03/29 04:34:49;;;;;;;2.42;1.50;;;5.20;99.90;;;;;;4769687;30;20514;-89
2023/03/29 04:37:20;;;;;;;2.10;1.33;;;4.70;99.90;;;;;;4769796;30;20039;-90
2023/03/29 04:39:47;;;;;;;2.78;1.40;;;6.20;99.90;;;;;;4754356;30;20060;-88
2023/03/29 04:42:13;;;;;;;3.58;1.60;;;5.50;99.90;;;;;;4769858;30;20142;-88
2023/03/29 04:48:07;;;;;;;2.00;1.20;;;5.20;99.90;;;;;;4738410;24;20064;-90
2023/03/29 04:50:35;;;;;;;3.10;1.35;;;5.80;99.90;;;;;;4741704;30;20743;-90
2023/03/29 04:53:07;;;;;;;2.50;1.17;;;5.30;99.90;;;;;;4726825;30;20071;-91
2023/03/29 04:55:33;;;;;;;3.35;1.80;;;5.30;99.90;;;;;;4726289;30;20125;-88
2023/03/29 04:58:07;;;;;;;2.10;1.38;;;6.10;99.90;;;;;;4727340;30;20427;-89
2023/03/29 05:00:33;;;;;;;2.35;1.20;;;6.10;99.90;;;;;;4731636;30;20056;-89
2023/03/29 05:03:06;;;;;;;3.47;1.83;;;6.30;99.90;;;;;;4727059;30;20078;-92
2023/03/29 05:05:36;;;;;;;3.80;1.58;;;5.30;99.90;;;;;;4724478;30;20147;-91
2023/03/29 05:08:02;;;;;;;5.03;2.10;;;5.30;99.90;;;;;;4729566;30;20407;-90
2023/03/29 05:10:28;;;;;;;3.70;1.58;;;5.30;99.90;;;;;;4732118;30;20055;-89
2023/03/29 05:12:55;;;;;;;3.67;1.67;;;5.30;99.90;;;;;;4732865;30;20057;-91
2023/03/29 05:15:24;;;;;;;3.78;1.92;;;5.30;99.90;;;;;;4726563;30;20492;-89
2023/03/29 05:17:49;;;;;;;4.28;1.75;;;5.50;99.90;;;;;;4709202;30;20098;-91
2023/03/29 05:20:16;;;;;;;5.55;2.45;;;5.10;99.90;;;;;;4728758;30;20052;-90
2023/03/29 05:22:42;;;;;;;2.83;1.80;;;5.40;99.90;;;;;;4725993;30;20488;-90
2023/03/29 05:25:10;;;;;;;5.28;2.15;;;5.40;99.90;;;;;;4726782;30;20053;-90
2023/03/29 05:27:36;;;;;;;5.60;2.70;;;5.40;99.90;;;;;;4728985;30;20458;-89
2023/03/29 05:30:02;;;;;;;4.63;2.50;;;6.10;99.90;;;;;;4730406;30;20041;-88
2023/03/29 05:32:27;;;;;;;7.95;2.80;;;6.10;99.90;;;;;;4729680;30;20475;-89
2023/03/29 05:34:53;;;;;;;5.88;2.60;;;6.70;99.90;;;;;;4726746;30;20080;-89
2023/03/29 05:37:19;;;;;;;4.28;2.38;;;6.70;99.90;;;;;;4727634;30;20059;-88
2023/03/29 05:39:45;;;;;;;3.92;2.13;;;6.70;99.90;;;;;;4727419;30;20095;-86
2023/03/29 05:42:12;;;;;;;4.47;2.28;;;6.10;99.90;;;;;;4733480;30;20060;-88
2023/03/29 05:44:39;;;;;;;6.95;2.65;;;5.70;99.90;;;;;;4726120;30;20064;-89
2023/03/29 05:47:08;;;;;;;5.28;2.92;;;5.80;99.90;;;;;;4728984;30;20079;-90
2023/03/29 05:49:34;;;;;;;6.70;2.95;;;5.50;99.90;;;;;;4730686;30;20122;-90
2023/03/29 05:51:59;;;;;;;4.10;2.10;;;5.60;99.90;;;;;;4729824;30;20128;-91
2023/03/29 05:54:26;;;;;;;5.72;2.95;;;6.90;99.90;;;;;;4731636;30;20400;-90
2023/03/29 05:56:51;;;;;;;5.80;3.25;;;6.80;99.90;;;;;;4727289;30;20060;-91
2023/03/29 05:59:18;;;;;;;4.70;2.67;;;6.30;99.90;;;;;;4730386;30;20052;-91
2023/03/29 06:01:45;;;;;;;5.38;2.75;;;5.60;99.90;;;;;;4735899;30;20081;-91
2023/03/29 06:04:12;;;;;;;5.28;2.38;;;6.00;99.90;;;;;;4715073;30;20159;-91
2023/03/29 06:06:39;;;;;;;7.78;3.10;;;5.70;99.90;;;;;;4730285;30;20111;-89
2023/03/29 06:09:08;;;;;;;6.22;2.63;;;6.00;99.90;;;;;;4734494;30;20116;-90
2023/03/29 06:11:34;;;;;;;4.50;2.60;;;5.80;99.90;;;;;;4730936;30;20052;-89
2023/03/29 06:14:01;;;;;;;6.18;3.22;;;5.70;99.90;;;;;;4721802;30;20057;-90
2023/03/29 06:16:27;;;;;;;4.75;2.40;;;6.40;99.90;;;;;;4731819;30;20458;-89
2023/03/29 06:18:54;;;;;;;5.93;2.78;;;6.60;99.90;;;;;;4732906;30;20167;-90
2023/03/29 06:21:25;;;;;;;5.43;2.80;;;5.80;99.90;;;;;;4728451;30;20135;-91
2023/03/29 06:23:51;;;;;;;7.20;3.53;;;5.80;99.90;;;;;;4715634;30;20097;-90
2023/03/29 06:26:19;;;;;;;7.15;3.03;;;6.10;99.90;;;;;;4728687;30;20507;-91
2023/03/29 06:28:45;;;;;;;6.32;3.00;;;5.80;99.90;;;;;;4723724;30;20649;-90
2023/03/29 06:31:11;;;;;;;7.95;3.55;;;5.50;99.90;;;;;;4732888;30;20076;-89
2023/03/29 06:33:37;;;;;;;5.32;3.80;;;6.50;99.90;;;;;;4727938;30;20052;-89
2023/03/29 06:36:06;;;;;;;5.72;2.67;;;5.90;99.90;;;;;;4734748;30;20045;-88
2023/03/29 06:38:32;;;;;;;7.50;3.22;;;6.00;99.90;;;;;;4728894;30;20045;-90
2023/03/29 06:41:04;;;;;;;7.05;3.17;;;6.70;99.90;;;;;;4723118;30;20053;-89
2023/03/29 06:43:31;;;;;;;5.05;2.70;;;6.10;99.90;;;;;;4727750;30;20059;-88
2023/03/29 06:46:07;;;;;;;5.95;3.10;;;6.00;99.90;;;;;;4728087;30;20123;-88
2023/03/29 06:48:33;;;;;;;;;;;7.30;99.90;;;;;;4735489;30;20373;-87
2023/03/29 06:50:59;;;;;;;6.45;3.30;;;5.90;99.90;;;;;;4731720;30;19957;-88
2023/03/29 06:53:32;;;;;;;4.93;3.00;;;6.80;99.90;;;;;;4725712;30;20044;-89
2023/03/29 06:55:58;;;;;;;5.88;3.38;;;6.90;99.90;;;;;;4724885;30;20049;-87
2023/03/29 06:58:24;;;;;;;6.45;3.70;;;6.60;99.90;;;;;;4732517;30;20060;-87
2023/03/29 07:00:50;;;;;;;6.10;2.95;;;6.80;99.90;;;;;;4727734;30;20058;-88
2023/03/29 07:03:22;;;;;;;5.30;2.97;;;6.30;99.90;;;;;;4733986;30;20044;-88
2023/03/29 07:05:49;;;;;;;4.80;2.58;;;6.20;99.90;;;;;;4727878;30;20088;-88
2023/03/29 07:08:15;;;;;;;6.10;3.10;;;6.30;99.90;;;;;;4729307;30;20186;-89
2023/03/29 07:10:44;;;;;;;7.10;2.83;;;6.30;99.90;;;;;;4727463;30;20044;-89
2023/03/29 07:13:14;;;;;;;5.13;3.15;;;6.50;99.90;;;;;;4729954;30;20045;-89
2023/03/29 07:15:42;;;;;;;4.80;2.72;;;7.20;99.90;;;;;;4727142;30;20068;-88
2023/03/29 07:18:09;;;;;;;5.03;3.58;;;7.20;99.90;;;;;;4719057;30;20053;-89
2023/03/29 07:20:37;;;;;;;7.43;3.60;;;7.30;99.90;;;;;;4733050;30;20049;-89
2023/03/29 07:23:04;;;;;;;4.70;2.38;;;7.10;99.90;;;;;;4724571;30;20496;-88
2023/03/29 07:25:30;;;;;;;6.95;3.42;;;7.30;99.90;;;;;;4716804;30;20052;-89
2023/03/29 07:27:56;;;;;;;6.25;3.22;;;7.00;99.90;;;;;;4728175;30;20049;-89
2023/03/29 07:30:28;;;;;;;5.95;3.10;;;7.10;99.90;;;;;;4722481;30;20066;-91
2023/03/29 07:32:56;;;;;;;7.03;4.00;;;7.10;99.90;;;;;;4729375;30;20455;-89
2023/03/29 07:35:22;;;;;;;8.65;3.67;;;7.20;99.90;;;;;;4734345;30;20138;-89
2023/03/29 07:37:48;;;;;;;7.05;3.63;;;7.70;99.90;;;;;;4720283;30;20052;-89
2023/03/29 07:40:22;;;;;;;7.47;3.78;;;7.80;99.90;;;;;;4734756;30;20056;-90
2023/03/29 07:51:02;;;;;;;8.55;3.40;;;7.30;99.90;;;;;;4741997;30;20434;-90
2023/03/29 07:53:31;;;;;;;7.60;3.58;;;8.50;99.90;;;;;;4724853;30;20068;-90
2023/03/29 07:55:57;;;;;;;5.43;3.13;;;7.30;99.90;;;;;;4754664;30;20056;-89
2023/03/29 07:58:28;;;;;;;4.97;2.72;;;7.30;99.90;;;;;;4738549;30;20053;-90
2023/03/29 08:00:54;;;;;;;6.40;3.30;;;8.00;99.90;;;;;;4738189;30;20048;-90
2023/03/29 08:03:23;;;;;;;8.50;3.40;;;7.40;99.90;;;;;;4737097;30;20052;-91
2023/03/29 08:05:48;;;;;;;6.15;3.42;;;8.20;99.90;;;;;;4719725;30;20139;-91
2023/03/29 08:08:19;;;;;;;6.25;3.88;;;8.40;99.90;;;;;;4735061;30;20148;-91
2023/03/29 08:10:47;;;;;;;7.38;3.30;;;7.60;99.90;;;;;;4749299;30;20414;-90
2023/03/29 08:13:16;;;;;;;7.03;3.13;;;7.70;99.90;;;;;;4734242;30;20060;-90
2023/03/29 08:15:46;;;;;;;8.65;4.15;;;7.90;99.90;;;;;;4719225;30;20064;-90
2023/03/29 08:18:14;;;;;;;8.15;3.30;;;8.40;99.90;;;;;;4735289;30;20079;-90
2023/03/29 08:20:42;;;;;;;8.75;4.10;;;8.60;99.90;;;;;;4733683;30;20055;-90
2023/03/29 08:23:13;;;;;;;7.43;4.13;;;8.00;99.90;;;;;;4735056;30;20491;-90
2023/03/29 08:25:39;;;;;;;6.47;3.80;;;8.20;99.90;;;;;;4733294;30;20388;-90
2023/03/29 08:28:05;;;;;;;7.22;3.63;;;8.30;99.90;;;;;;4733896;30;20055;-89
2023/03/29 08:30:35;;;;;;;7.80;3.30;;;8.30;99.90;;;;;;4733867;30;20131;-89
2023/03/29 08:33:03;;;;;;;6.60;3.85;;;8.30;99.90;;;;;;4733740;30;20095;-90
2023/03/29 08:35:29;;;;;;;6.97;3.67;;;8.40;99.90;;;;;;4719331;30;20060;-90
2023/03/29 08:38:05;;;;;;;5.57;3.20;;;8.00;99.90;;;;;;4733861;30;20052;-89
2023/03/29 08:40:35;;;;;;;6.25;3.20;;;8.40;99.90;;;;;;4748279;30;20085;-90
2023/03/29 08:43:23;;;;;;;6.72;3.58;;;9.10;99.90;;;;;;4734817;30;20051;-90
2023/03/29 08:46:21;;;;;;;5.03;3.00;;;8.60;99.90;;;;;;4733917;30;20059;-90
2023/03/29 08:48:53;;;;;;;7.47;4.13;;;8.70;99.90;;;;;;4733285;30;20056;-91
2023/03/29 08:51:47;;;;;;;7.10;3.97;;;8.70;99.90;;;;;;4733432;30;20484;-90
2023/03/29 08:54:38;;;;;;;10.82;3.42;;;8.90;99.90;;;;;;4732604;30;20103;-90
2023/03/29 08:57:18;;;;;;;5.70;2.80;;;9.00;99.90;;;;;;4733779;30;20056;-90
2023/03/29 08:59:50;;;;;;;11.43;4.00;;;9.10;99.90;;;;;;4733896;30;20407;-90
2023/03/29 09:02:32;;;;;;;7.35;3.72;;;9.10;99.90;;;;;;4736464;30;20053;-90
2023/03/29 09:05:27;;;;;;;8.23;3.92;;;9.20;99.90;;;;;;4738689;30;20051;-90
2023/03/29 09:08:31;;;;;;;7.40;3.65;;;9.20;99.90;;;;;;4687062;30;20159;-90
2023/03/29 09:11:23;;;;;;;9.90;4.43;;;9.60;99.90;;;;;;4701280;30;20060;-91
2023/03/29 09:14:13;;;;;;;8.00;4.63;;;9.40;99.90;;;;;;4701401;30;20120;-90
2023/03/29 09:17:31;;;;;;;8.18;3.95;;;9.40;99.90;;;;;;4686349;30;20061;-90
2023/03/29 09:20:23;;;;;;;5.90;3.40;;;9.40;99.90;;;;;;4686719;30;20097;-90
2023/03/29 09:23:43;;;;;;;13.55;4.72;;;9.60;99.90;;;;;;4686774;30;20087;-89
2023/03/29 09:26:42;;;;;;;8.45;3.50;;;9.70;99.90;;;;;;4649808;30;20066;-90
2023/03/29 09:29:39;;;;;;;8.80;3.50;;;9.70;99.90;;;;;;4622111;30;20074;-90
2023/03/29 09:32:29;;;;;;;7.93;4.15;;;9.80;99.90;;;;;;4650026;30;20063;-90
2023/03/29 09:35:13;;;;;;;12.50;4.82;;;10.10;99.90;;;;;;4635915;30;20163;-90
2023/03/29 09:37:50;;;;;;;;;;;;;;;;;;;;;
2023/03/29 09:40:23;;;;;;;7.53;3.67;;;10.20;99.90;;;;;;4649859;30;20055;-90
2023/03/29 09:47:21;;;;;;;9.90;3.95;;;10.40;99.90;;;;;;4649512;30;20049;-90
2023/03/29 09:50:22;;;;;;;8.52;4.22;;;10.50;99.90;;;;;;4651771;30;20058;-90
2023/03/29 09:53:04;;;;;;;;;;;;;;;;;;;;;
2023/03/29 09:56:20;;;;;;;;;;;;;;;;;;;;;
2023/03/29 09:58:50;;;;;;;8.55;3.80;;;10.40;99.90;;;;;;4578460;31;20059;-91
2023/03/29 10:01:28;;;;;;;9.07;3.53;;;10.30;99.90;;;;;;4628283;30;20066;-91
2023/03/29 10:04:27;;;;;;;;;;;;;;;;;;;;;
2023/03/29 10:07:31;;;;;;;;;;;;;;;;;;;;;
2023/03/29 10:10:10;;;;;;;16.60;5.38;;;11.00;99.90;;;;;;4664355;30;20062;-90
2023/03/29 10:12:49;;;;;;;8.75;4.82;;;11.10;99.90;;;;;;4651869;30;20054;-91
2023/03/29 10:15:32;;;;;;;12.07;4.93;;;11.10;99.90;;;;;;4666169;30;20054;-90
2023/03/29 10:18:12;;;;;;;10.40;4.20;;;11.40;99.90;;;;;;4666098;30;20078;-90
2023/03/29 10:20:53;;;;;;;;;;;;;;;;;;;;;
2023/03/29 10:23:26;;;;;;;8.98;3.83;;;11.00;99.90;;;;;;4698361;30;20067;-90
2023/03/29 10:29:12;;;;;;;9.18;4.50;;;11.10;99.90;;;;;;4735888;30;20110;-91
2023/03/29 10:32:19;;;;;;;10.82;4.65;;;11.20;99.90;;;;;;4736082;30;20651;-90
2023/03/29 10:35:10;;;;;;;9.20;4.28;;;11.10;99.90;;;;;;4723492;30;20049;-91
2023/03/29 10:37:43;;;;;;;9.52;4.03;;;11.50;99.90;;;;;;4737704;30;20064;-87
2023/03/29 10:41:01;;;;;;;9.18;3.92;;;11.00;99.90;;;;;;4748690;24;20048;-92
2023/03/29 10:43:49;;;;;;;9.95;4.90;;;10.90;99.90;;;;;;4668292;30;20058;-92
2023/03/29 10:46:41;;;;;;;14.10;5.07;;;10.90;99.90;;;;;;4681737;30;20483;-87
2023/03/29 10:49:21;;;;;;;7.03;3.72;;;10.90;99.90;;;;;;4665157;30;20073;-87
2023/03/29 10:51:49;;;;;;;7.90;4.18;;;11.00;99.90;;;;;;4677271;30;20054;-87
2023/03/29 10:54:21;;;;;;;6.20;3.08;;;11.00;99.90;;;;;;4669557;30;20106;-86
2023/03/29 10:56:57;;;;;;;9.75;5.03;;;11.10;99.90;;;;;;4667264;30;20046;-89
2023/03/29 11:00:11;;;;;;;10.07;4.43;;;11.20;99.90;;;;;;4667831;30;20058;-87
2023/03/29 11:02:58;;;;;;;8.32;4.13;;;11.30;99.90;;;;;;4658439;30;20066;-86
2023/03/29 11:05:33;;;;;;;7.65;4.93;;;11.50;99.90;;;;;;4664788;30;20053;-87
2023/03/29 11:08:05;;;;;;;9.73;5.10;;;11.80;99.90;;;;;;4650684;30;20131;-87
2023/03/29 11:11:02;;;;;;;12.30;5.38;;;11.50;99.90;;;;;;4650234;30;20066;-87
2023/03/29 11:13:43;;;;;;;13.48;5.25;;;11.60;99.90;;;;;;4664423;30;20058;-87
2023/03/29 11:16:24;;;;;;;11.85;5.68;;;11.70;99.90;;;;;;4666169;30;20051;-85
2023/03/29 11:19:02;;;;;;;9.98;4.88;;;11.80;99.90;;;;;;4643820;30;20094;-87
2023/03/29 11:21:51;;;;;;;13.98;5.53;;;11.90;99.90;;;;;;4686862;30;20119;-87
2023/03/29 11:24:28;;;;;;;7.70;3.70;;;11.90;99.90;;;;;;4690019;30;20041;-88
2023/03/29 11:27:15;;;;;;;11.73;5.00;;;12.00;99.90;;;;;;4678050;30;20122;-86
2023/03/29 11:29:44;;;;;;;6.93;3.65;;;12.20;99.90;;;;;;4690564;30;20045;-87
2023/03/29 11:32:37;;;;;;;9.43;4.93;;;12.30;99.90;;;;;;4683247;30;20100;-87
2023/03/29 11:35:33;;;;;;;10.90;5.38;;;12.50;99.90;;;;;;4693020;30;20045;-87
2023/03/29 11:38:32;;;;;;;12.23;6.40;;;12.60;99.90;;;;;;4699471;30;20143;-86
2023/03/29 11:41:00;;;;;;;9.98;5.00;;;12.80;99.90;;;;;;4728632;30;20049;-87
2023/03/29 11:43:41;;;;;;;10.55;5.20;;;13.00;99.90;;;;;;4704758;30;20659;-88
2023/03/29 11:46:20;;;;;;;13.63;5.63;;;13.10;99.90;;;;;;4721600;30;20080;-87
2023/03/29 11:48:58;;;;;;;11.00;5.57;;;13.10;99.90;;;;;;4719418;30;20499;-87
2023/03/29 11:51:37;;;;;;;13.45;5.18;;;13.10;99.90;;;;;;4722198;30;20060;-87
2023/03/29 11:54:10;;;;;;;11.45;5.40;;;13.20;99.90;;;;;;4713939;30;20060;-86
2023/03/29 11:56:42;;;;;;;10.85;5.63;;;13.20;99.90;;;;;;4734645;30;20052;-87
2023/03/29 11:59:26;;;;;;;10.98;5.00;;;13.10;99.90;;;;;;4734809;30;20053;-88
2023/03/29 12:02:09;;;;;;;9.88;5.03;;;13.50;99.90;;;;;;4734653;30;20095;-87
2023/03/29 12:04:45;;;;;;;8.68;4.85;;;13.30;99.90;;;;;;4734734;30;20052;-87
2023/03/29 12:07:14;;;;;;;6.18;3.88;;;13.20;99.90;;;;;;4734809;30;20044;-86
2023/03/29 12:10:01;;;;;;;8.25;5.07;;;13.30;99.90;;;;;;4718769;30;20057;-87
2023/03/29 12:12:46;;;;;;;8.13;4.53;;;13.40;99.90;;;;;;4719012;30;20056;-86
2023/03/29 12:15:25;;;;;;;9.23;4.70;;;13.30;99.90;;;;;;4721417;30;20376;-87
2023/03/29 12:18:13;;;;;;;7.55;4.82;;;13.40;99.90;;;;;;4718809;30;20130;-87
2023/03/29 12:20:40;;;;;;;10.63;5.03;;;13.40;99.90;;;;;;4734354;30;20049;-86
2023/03/29 12:23:11;;;;;;;5.90;3.95;;;13.40;99.90;;;;;;4719363;30;20052;-86
2023/03/29 12:26:02;;;;;;;8.13;4.13;;;13.40;99.90;;;;;;4723939;30;20056;-87
2023/03/29 12:28:55;;;;;;;8.02;3.83;;;13.50;99.90;;;;;;4721037;30;20052;-90
2023/03/29 12:31:33;;;;;;;9.55;4.03;;;13.60;99.90;;;;;;4718627;30;20152;-90
2023/03/29 12:34:14;;;;;;;7.03;4.88;;;13.80;99.90;;;;;;4717681;30;20110;-91
2023/03/29 12:37:03;;;;;;;7.05;4.07;;;14.00;99.90;;;;;;4736421;30;20189;-89
2023/03/29 12:39:31;;;;;;;10.68;4.38;;;14.10;99.90;;;;;;4733454;30;20069;-89
2023/03/29 12:42:19;;;;;;;9.57;4.78;;;14.20;99.90;;;;;;4752648;30;20060;-86
2023/03/29 12:44:57;;;;;;;10.10;4.65;;;14.20;99.90;;;;;;4743719;30;20438;-88
2023/03/29 12:47:32;;;;;;;9.93;4.93;;;14.20;99.90;;;;;;4755098;30;20056;-88
2023/03/29 12:49:59;;;;;;;6.45;3.42;;;14.20;99.90;;;;;;4734808;30;20052;-86
2023/03/29 12:52:35;;;;;;;7.63;3.85;;;14.30;99.90;;;;;;4725934;30;20057;-86
2023/03/29 12:55:28;;;;;;;7.03;3.80;;;14.20;99.90;;;;;;4718725;30;20056;-85
2023/03/29 12:58:03;;;;;;;7.70;3.78;;;14.30;99.90;;;;;;4730886;30;20053;-85
2023/03/29 13:00:35;;;;;;;6.50;4.50;;;14.30;99.90;;;;;;4712146;30;20135;-86
2023/03/29 13:03:18;;;;;;;10.48;3.95;;;14.20;99.90;;;;;;4734623;30;20306;-85
2023/03/29 13:05:44;;;;;;;5.68;3.78;;;14.20;99.90;;;;;;4741943;30;20061;-85
2023/03/29 13:08:31;;;;;;;7.20;3.25;;;14.20;99.90;;;;;;4718861;30;20384;-85
2023/03/29 13:10:57;;;;;;;5.63;3.60;;;14.10;99.90;;;;;;4734225;30;20049;-85
2023/03/29 13:13:28;;;;;;;5.82;3.65;;;14.30;99.90;;;;;;4718673;30;20056;-85
2023/03/29 13:15:54;;;;;;;6.60;3.95;;;14.10;99.90;;;;;;4726540;30;20091;-85
2023/03/29 13:18:34;;;;;;;7.55;4.20;;;14.20;99.90;;;;;;4737661;30;20427;-87
2023/03/29 13:21:43;;;;;;;6.53;3.55;;;14.10;99.90;;;;;;4734074;30;20065;-84
2023/03/29 13:24:35;;;;;;;6.35;3.45;;;14.10;99.90;;;;;;4704233;30;20057;-85
2023/03/29 13:27:43;;;;;;;7.20;4.45;;;14.10;99.90;;;;;;4682502;30;20206;-86
2023/03/29 13:34:25;;;;;;;5.97;3.17;;;14.00;99.90;;;;;;4691487;30;20155;-85
2023/03/29 13:36:59;;;;;;;12.77;4.70;;;14.00;99.90;;;;;;4674388;30;20102;-86
2023/03/29 13:39:31;;;;;;;5.68;3.88;;;13.90;99.90;;;;;;4680231;30;20077;-86
2023/03/29 13:42:18;;;;;;;6.30;3.58;;;13.90;99.90;;;;;;4660727;30;20057;-86
2023/03/29 13:44:47;;;;;;;7.00;3.60;;;14.00;99.90;;;;;;4700257;30;20067;-87
2023/03/29 13:47:31;;;;;;;6.13;3.75;;;13.90;99.90;;;;;;4707595;30;20061;-86
2023/03/29 13:50:04;;;;;;;6.03;3.60;;;13.90;99.90;;;;;;4686370;30;20125;-86
2023/03/29 13:52:35;;;;;;;7.50;4.35;;;13.90;99.90;;;;;;4701124;30;20147;-87
2023/03/29 13:55:26;;;;;;;7.85;4.70;;;14.00;99.90;;;;;;4702848;30;20062;-85
2023/03/29 13:58:01;;;;;;;8.40;4.35;;;13.90;99.90;;;;;;4702461;30;20069;-87
2023/03/29 14:00:35;;;;;;;7.25;4.82;;;14.00;99.90;;;;;;4691726;30;20145;-86
2023/03/29 14:03:06;;;;;;;6.13;3.83;;;14.00;99.90;;;;;;4708746;30;20051;-86